createdAt,value
2017-12-30T00:01:46.927Z,69.79
2017-12-30T00:04:14.418Z,69.39
2017-12-30T00:06:41.915Z,69.17
2017-12-30T00:09:10.195Z,69.10
2017-12-30T00:11:38.037Z,68.94
2017-12-30T00:14:05.535Z,68.81
2017-12-30T00:16:33.977Z,68.39
2017-12-30T00:19:01.480Z,68.55
2017-12-30T00:21:29.032Z,68.31
2017-12-30T00:23:56.550Z,68.19
2017-12-30T00:26:24.051Z,68.01
2017-12-30T00:28:51.536Z,68.52
2017-12-30T00:31:19.115Z,68.15
2017-12-30T00:33:46.696Z,68.26
2017-12-30T00:36:14.238Z,67.59
2017-12-30T00:38:41.735Z,67.41
2017-12-30T00:41:09.308Z,67.46
2017-12-30T00:43:36.816Z,66.99
2017-12-30T00:46:04.252Z,67.68
2017-12-30T00:48:31.702Z,67.35
2017-12-30T00:50:59.226Z,67.26
2017-12-30T00:53:26.683Z,67.50
2017-12-30T00:55:54.195Z,67.48
2017-12-30T00:58:21.692Z,67.28
2017-12-30T01:00:49.280Z,67.58
2017-12-30T01:03:16.717Z,68.07
2017-12-30T01:05:44.168Z,68.00
2017-12-30T01:08:11.843Z,68.34
2017-12-30T01:10:39.305Z,68.02
2017-12-30T01:13:06.754Z,67.97
2017-12-30T01:15:34.258Z,68.17
2017-12-30T01:18:01.706Z,67.87
2017-12-30T01:20:29.159Z,66.90
2017-12-30T01:22:56.623Z,67.33
2017-12-30T01:25:25.956Z,67.25
2017-12-30T01:27:53.568Z,66.57
2017-12-30T01:30:21.006Z,66.65
2017-12-30T01:32:48.461Z,65.92
2017-12-30T01:35:15.900Z,66.08
2017-12-30T01:37:43.439Z,66.13
2017-12-30T01:40:10.882Z,66.21
2017-12-30T01:42:38.362Z,65.77
2017-12-30T01:45:05.815Z,65.64
2017-12-30T01:47:33.272Z,65.07
2017-12-30T01:50:00.702Z,64.85
2017-12-30T01:52:28.165Z,64.99
2017-12-30T01:54:55.606Z,65.45
2017-12-30T01:57:23.063Z,65.15
2017-12-30T01:59:50.498Z,65.46
2017-12-30T02:02:18.046Z,65.61
2017-12-30T02:04:45.501Z,66.05
2017-12-30T02:07:13.717Z,65.83
2017-12-30T02:09:41.207Z,66.01
2017-12-30T02:12:08.702Z,65.95
2017-12-30T02:14:36.218Z,66.10
2017-12-30T02:17:03.677Z,66.10
2017-12-30T02:19:31.133Z,66.04
2017-12-30T02:21:58.580Z,65.92
2017-12-30T02:24:26.100Z,66.09
2017-12-30T02:26:53.708Z,66.22
2017-12-30T02:29:21.252Z,66.70
2017-12-30T02:31:48.715Z,66.75
2017-12-30T02:34:16.187Z,66.55
2017-12-30T02:36:43.650Z,66.43
2017-12-30T02:39:12.897Z,67.02
2017-12-30T02:41:40.436Z,66.75
2017-12-30T02:44:07.863Z,66.79
2017-12-30T02:46:35.409Z,67.32
2017-12-30T02:49:02.847Z,67.40
2017-12-30T02:51:30.319Z,67.42
2017-12-30T02:53:57.856Z,68.02
2017-12-30T02:56:25.358Z,68.14
2017-12-30T02:58:52.927Z,67.79
2017-12-30T03:01:20.374Z,68.04
2017-12-30T03:03:47.895Z,68.02
2017-12-30T03:06:15.348Z,68.55
2017-12-30T03:08:42.815Z,68.61
2017-12-30T03:11:10.256Z,68.67
2017-12-30T03:13:37.860Z,68.75
2017-12-30T03:16:05.916Z,69.11
2017-12-30T03:18:33.351Z,69.09
2017-12-30T03:21:00.821Z,69.11
2017-12-30T03:23:28.257Z,69.32
2017-12-30T03:25:55.718Z,69.30
2017-12-30T03:28:23.188Z,69.20
2017-12-30T03:30:50.662Z,69.36
2017-12-30T03:33:18.140Z,69.51
2017-12-30T03:35:45.587Z,69.74
2017-12-30T03:38:13.048Z,69.74
2017-12-30T03:40:40.543Z,69.75
2017-12-30T03:43:09.718Z,69.96
2017-12-30T03:45:37.232Z,70.20
2017-12-30T03:48:04.808Z,69.99
2017-12-30T03:50:32.251Z,70.30
2017-12-30T03:52:59.797Z,70.27
2017-12-30T03:55:27.283Z,70.50
2017-12-30T03:57:54.824Z,70.66
2017-12-30T04:00:22.290Z,70.87
2017-12-30T04:02:49.730Z,71.30
2017-12-30T04:05:17.287Z,71.14
2017-12-30T04:07:44.734Z,71.24
2017-12-30T04:10:12.181Z,71.40
2017-12-30T04:12:39.727Z,71.61
2017-12-30T04:15:07.298Z,71.79
2017-12-30T04:17:34.786Z,71.81
2017-12-30T04:20:02.292Z,71.91
2017-12-30T04:22:30.103Z,71.84
2017-12-30T04:24:57.564Z,72.04
2017-12-30T04:27:25.016Z,71.76
2017-12-30T04:29:52.521Z,71.97
2017-12-30T04:32:19.977Z,72.24
2017-12-30T04:34:47.470Z,72.02
2017-12-30T04:37:14.910Z,72.32
2017-12-30T04:39:42.460Z,72.23
2017-12-30T04:42:09.907Z,72.07
2017-12-30T04:44:37.476Z,72.23
2017-12-30T04:47:06.102Z,72.33
2017-12-30T04:49:33.609Z,72.26
2017-12-30T04:52:01.069Z,72.39
2017-12-30T04:54:28.555Z,72.52
2017-12-30T04:56:56.111Z,72.25
2017-12-30T04:59:23.551Z,72.54
2017-12-30T05:01:51.023Z,72.72
2017-12-30T05:04:18.536Z,72.46
2017-12-30T05:06:46.002Z,72.30
2017-12-30T05:09:13.491Z,72.59
2017-12-30T05:11:41.032Z,72.74
2017-12-30T05:14:08.527Z,72.79
2017-12-30T05:16:35.970Z,72.60
2017-12-30T05:19:03.520Z,72.75
2017-12-30T05:21:30.966Z,72.56
2017-12-30T05:23:58.420Z,72.49
2017-12-30T05:26:26.001Z,72.83
2017-12-30T05:28:53.456Z,73.11
2017-12-30T05:31:20.973Z,72.76
2017-12-30T05:33:48.443Z,72.75
2017-12-30T05:36:15.958Z,72.88
2017-12-30T05:38:43.422Z,72.98
2017-12-30T05:41:10.871Z,72.95
2017-12-30T05:43:38.364Z,73.10
2017-12-30T05:46:05.851Z,72.93
2017-12-30T05:48:33.302Z,73.17
2017-12-30T05:51:00.763Z,73.18
2017-12-30T05:53:28.294Z,72.87
2017-12-30T05:55:55.795Z,73.27
2017-12-30T05:58:23.451Z,73.34
2017-12-30T06:00:50.984Z,73.44
2017-12-30T06:03:18.486Z,73.53
2017-12-30T06:05:45.967Z,73.68
2017-12-30T06:08:13.457Z,73.78
2017-12-30T06:10:40.954Z,73.88
2017-12-30T06:13:08.478Z,73.75
2017-12-30T06:15:35.936Z,73.90
2017-12-30T06:18:03.581Z,73.93
2017-12-30T06:20:31.035Z,74.20
2017-12-30T06:22:58.495Z,74.37
2017-12-30T06:25:25.964Z,74.58
2017-12-30T06:27:53.446Z,74.36
2017-12-30T06:30:20.930Z,74.58
2017-12-30T06:32:48.428Z,74.47
2017-12-30T06:35:15.867Z,74.38
2017-12-30T06:37:43.324Z,74.65
2017-12-30T06:40:10.964Z,74.49
2017-12-30T06:42:38.480Z,74.36
2017-12-30T06:45:06.030Z,74.48
2017-12-30T06:47:33.499Z,74.68
2017-12-30T06:50:00.951Z,74.67
2017-12-30T06:52:28.458Z,74.47
2017-12-30T06:54:55.903Z,74.37
2017-12-30T06:57:23.367Z,74.42
2017-12-30T06:59:50.840Z,74.47
2017-12-30T07:02:18.277Z,74.88
2017-12-30T07:04:45.715Z,74.78
2017-12-30T07:07:13.167Z,74.85
2017-12-30T07:09:41.576Z,75.01
2017-12-30T07:12:09.190Z,74.73
2017-12-30T07:14:36.756Z,74.83
2017-12-30T07:17:04.213Z,74.86
2017-12-30T07:19:31.667Z,74.79
2017-12-30T07:21:59.184Z,74.91
2017-12-30T07:24:26.639Z,74.62
2017-12-30T07:26:54.935Z,74.60
2017-12-30T07:29:22.463Z,74.49
2017-12-30T07:31:49.913Z,74.23
2017-12-30T07:34:17.415Z,74.30
2017-12-30T07:36:44.864Z,74.13
2017-12-30T07:39:13.112Z,74.21
2017-12-30T07:41:40.568Z,74.35
2017-12-30T07:44:08.025Z,74.32
2017-12-30T07:46:36.522Z,74.40
2017-12-30T07:49:04.042Z,74.69
2017-12-30T07:51:31.541Z,74.46
2017-12-30T07:53:59.034Z,74.63
2017-12-30T07:56:26.829Z,74.18
2017-12-30T07:58:54.306Z,74.10
2017-12-30T08:01:21.865Z,73.93
2017-12-30T08:03:49.405Z,74.10
2017-12-30T08:06:16.922Z,74.12
2017-12-30T08:08:44.385Z,74.29
2017-12-30T08:11:11.861Z,73.79
2017-12-30T08:13:39.454Z,73.11
2017-12-30T08:16:06.976Z,72.83
2017-12-30T08:18:34.431Z,72.86
2017-12-30T08:21:01.912Z,73.02
2017-12-30T08:23:29.380Z,72.10
2017-12-30T08:25:56.818Z,72.40
2017-12-30T08:28:24.331Z,72.56
2017-12-30T08:30:51.800Z,71.43
2017-12-30T08:33:19.359Z,69.56
2017-12-30T08:35:46.833Z,67.78
2017-12-30T08:38:14.306Z,67.38
2017-12-30T08:40:41.919Z,66.79
2017-12-30T08:43:09.386Z,67.88
2017-12-30T08:45:36.850Z,68.89
2017-12-30T08:48:04.394Z,69.32
2017-12-30T08:50:31.883Z,69.53
2017-12-30T08:52:59.442Z,69.61
2017-12-30T08:55:26.948Z,70.17
2017-12-30T08:57:54.406Z,69.79
2017-12-30T09:00:21.896Z,70.09
2017-12-30T09:02:49.337Z,69.75
2017-12-30T09:05:16.815Z,69.83
2017-12-30T09:07:44.369Z,69.68
2017-12-30T09:10:11.883Z,69.67
2017-12-30T09:12:39.417Z,70.12
2017-12-30T09:15:06.952Z,70.04
2017-12-30T09:17:34.410Z,69.77
2017-12-30T09:20:02.552Z,69.38
2017-12-30T09:22:30.062Z,69.54
2017-12-30T09:24:57.511Z,69.40
2017-12-30T09:27:24.983Z,69.75
2017-12-30T09:29:52.504Z,69.66
2017-12-30T09:32:19.944Z,69.86
2017-12-30T09:34:47.701Z,70.05
2017-12-30T09:37:15.172Z,69.71
2017-12-30T09:39:42.732Z,69.75
2017-12-30T09:42:10.192Z,70.07
2017-12-30T09:44:37.642Z,69.66
2017-12-30T09:47:05.107Z,69.49
2017-12-30T09:49:32.571Z,69.22
2017-12-30T09:52:03.289Z,69.32
2017-12-30T09:54:30.725Z,69.30
2017-12-30T09:56:58.169Z,69.25
2017-12-30T09:59:25.667Z,69.47
2017-12-30T10:01:53.136Z,69.83
2017-12-30T10:04:20.567Z,69.48
2017-12-30T10:06:48.068Z,69.64
2017-12-30T10:09:15.536Z,69.62
2017-12-30T10:11:42.983Z,69.73
2017-12-30T10:14:10.425Z,69.66
2017-12-30T10:16:37.902Z,69.44
2017-12-30T10:19:05.356Z,69.63
2017-12-30T10:21:32.809Z,69.78
2017-12-30T10:24:00.289Z,69.66
2017-12-30T10:26:27.843Z,69.84
2017-12-30T10:28:55.399Z,69.86
2017-12-30T10:31:22.920Z,70.06
2017-12-30T10:33:50.380Z,70.31
2017-12-30T10:36:17.909Z,70.54
2017-12-30T10:38:45.393Z,70.61
2017-12-30T10:41:12.926Z,70.69
2017-12-30T10:43:40.459Z,70.79
2017-12-30T10:46:07.917Z,70.92
2017-12-30T10:48:35.360Z,71.34
2017-12-30T10:51:02.820Z,71.56
2017-12-30T10:53:30.536Z,71.91
2017-12-30T10:55:58.060Z,72.03
2017-12-30T10:58:25.555Z,72.05
2017-12-30T11:00:58.930Z,72.08
2017-12-30T11:03:26.457Z,72.04
2017-12-30T11:05:53.911Z,71.94
2017-12-30T11:08:21.380Z,71.92
2017-12-30T11:10:48.847Z,71.76
2017-12-30T11:13:16.320Z,71.89
2017-12-30T11:15:43.799Z,71.23
2017-12-30T11:18:11.246Z,71.43
2017-12-30T11:20:38.697Z,71.68
2017-12-30T11:23:06.232Z,71.83
2017-12-30T11:25:33.674Z,71.90
2017-12-30T11:28:01.208Z,72.09
2017-12-30T11:30:28.712Z,72.67
2017-12-30T11:32:56.188Z,73.01
2017-12-30T11:35:23.647Z,73.30
2017-12-30T11:37:51.136Z,73.78
2017-12-30T11:40:18.595Z,73.88
2017-12-30T11:42:46.045Z,74.13
2017-12-30T11:45:13.563Z,74.15
2017-12-30T11:47:41.004Z,74.31
2017-12-30T11:50:08.456Z,74.35
2017-12-30T11:52:35.921Z,74.36
2017-12-30T11:55:03.405Z,74.29
2017-12-30T11:57:30.852Z,74.32
2017-12-30T11:59:58.312Z,74.35
2017-12-30T12:02:25.770Z,74.37
2017-12-30T12:04:53.249Z,74.13
2017-12-30T12:07:21.508Z,74.18
2017-12-30T12:09:48.955Z,74.31
2017-12-30T12:12:16.414Z,74.37
2017-12-30T12:14:43.858Z,74.03
2017-12-30T12:17:11.312Z,73.86
2017-12-30T12:19:38.752Z,73.64
2017-12-30T12:22:06.199Z,73.74
2017-12-30T12:24:33.636Z,73.64
2017-12-30T12:27:01.085Z,73.67
2017-12-30T12:29:28.531Z,73.84
2017-12-30T12:31:56.033Z,74.05
2017-12-30T12:34:23.565Z,74.18
2017-12-30T12:36:51.005Z,74.59
2017-12-30T12:39:18.521Z,74.78
2017-12-30T12:41:45.971Z,74.99
2017-12-30T12:44:13.420Z,75.05
2017-12-30T12:46:40.874Z,75.34
2017-12-30T12:49:08.330Z,75.48
2017-12-30T12:51:35.883Z,75.44
2017-12-30T12:54:03.340Z,75.46
2017-12-30T12:56:30.791Z,75.62
2017-12-30T12:58:58.622Z,75.69
2017-12-30T13:01:26.080Z,75.35
2017-12-30T13:03:53.551Z,75.24
2017-12-30T13:06:21.092Z,75.67
2017-12-30T13:08:48.570Z,76.23
2017-12-30T13:11:16.034Z,76.52
2017-12-30T13:13:43.484Z,76.57
2017-12-30T13:16:10.947Z,77.62
2017-12-30T13:18:38.510Z,77.79
2017-12-30T13:21:06.002Z,79.03
2017-12-30T13:23:33.463Z,79.35
2017-12-30T13:26:00.951Z,79.50
2017-12-30T13:28:28.387Z,80.47
2017-12-30T13:30:55.840Z,80.75
2017-12-30T13:33:23.291Z,80.45
2017-12-30T13:35:50.741Z,80.52
2017-12-30T13:38:18.212Z,80.87
2017-12-30T13:40:45.686Z,81.73
2017-12-30T13:43:13.139Z,82.10
2017-12-30T13:45:40.663Z,82.96
2017-12-30T13:48:08.129Z,83.56
2017-12-30T13:50:35.590Z,83.72
2017-12-30T13:53:03.148Z,84.47
2017-12-30T13:55:30.591Z,84.68
2017-12-30T13:57:58.119Z,84.68
2017-12-30T14:00:25.648Z,85.46
2017-12-30T14:02:53.293Z,85.42
2017-12-30T14:05:20.755Z,85.83
2017-12-30T14:07:48.268Z,86.22
2017-12-30T14:10:15.729Z,86.05
2017-12-30T14:12:43.221Z,86.58
2017-12-30T14:15:10.690Z,86.77
2017-12-30T14:17:38.139Z,86.64
2017-12-30T14:20:05.623Z,86.66
2017-12-30T14:22:33.082Z,87.19
2017-12-30T14:25:00.522Z,86.42
2017-12-30T14:27:28.024Z,86.67
2017-12-30T14:29:55.533Z,87.13
2017-12-30T14:32:23.014Z,86.76
2017-12-30T14:34:50.465Z,86.72
2017-12-30T14:37:18.021Z,86.34
2017-12-30T14:39:45.529Z,87.00
2017-12-30T14:42:13.016Z,86.55
2017-12-30T14:44:40.542Z,86.65
2017-12-30T14:47:08.516Z,87.15
2017-12-30T14:49:36.015Z,87.30
2017-12-30T14:52:03.459Z,87.62
2017-12-30T14:54:30.934Z,86.98
2017-12-30T14:56:58.737Z,86.78
2017-12-30T14:59:26.196Z,87.08
2017-12-30T15:01:53.641Z,86.87
2017-12-30T15:04:21.203Z,87.55
2017-12-30T15:06:48.681Z,87.95
2017-12-30T15:09:16.115Z,87.64
2017-12-30T15:11:43.580Z,87.91
2017-12-30T15:14:11.028Z,87.95
2017-12-30T15:16:38.489Z,87.57
2017-12-30T15:19:05.933Z,87.71
2017-12-30T15:21:33.457Z,88.00
2017-12-30T15:24:00.984Z,87.63
2017-12-30T15:26:28.556Z,87.69
2017-12-30T15:28:56.036Z,87.98
2017-12-30T15:31:24.448Z,87.52
2017-12-30T15:33:51.938Z,87.20
2017-12-30T15:36:19.377Z,86.90
2017-12-30T15:38:46.822Z,86.89
2017-12-30T15:41:14.295Z,87.25
2017-12-30T15:43:41.747Z,87.19
2017-12-30T15:46:09.248Z,87.46
2017-12-30T15:48:36.713Z,87.57
2017-12-30T15:51:04.179Z,87.09
2017-12-30T15:53:31.793Z,87.60
2017-12-30T15:55:59.233Z,87.40
2017-12-30T15:58:26.687Z,86.96
2017-12-30T16:00:54.121Z,86.74
2017-12-30T16:03:21.608Z,86.50
2017-12-30T16:05:49.075Z,86.50
2017-12-30T16:08:16.627Z,86.42
2017-12-30T16:10:44.071Z,86.39
2017-12-30T16:13:11.514Z,86.18
2017-12-30T16:15:38.978Z,86.02
2017-12-30T16:18:06.471Z,85.96
2017-12-30T16:20:34.016Z,85.91
2017-12-30T16:23:01.508Z,85.31
2017-12-30T16:25:28.974Z,85.34
2017-12-30T16:27:56.416Z,85.44
2017-12-30T16:30:23.900Z,85.98
2017-12-30T16:32:51.337Z,86.26
2017-12-30T16:35:18.822Z,85.77
2017-12-30T16:37:46.303Z,85.51
2017-12-30T16:40:13.759Z,84.89
2017-12-30T16:42:41.263Z,85.16
2017-12-30T16:45:08.705Z,84.50
2017-12-30T16:47:36.158Z,84.14
2017-12-30T16:50:03.679Z,84.15
2017-12-30T16:52:31.249Z,84.41
2017-12-30T16:54:58.724Z,84.21
2017-12-30T16:57:26.169Z,83.52
2017-12-30T16:59:53.668Z,83.68
2017-12-30T17:02:21.108Z,84.03
2017-12-30T17:04:48.560Z,83.74
2017-12-30T17:07:16.065Z,83.46
2017-12-30T17:09:43.559Z,83.43
2017-12-30T17:12:10.998Z,82.85
2017-12-30T17:14:38.628Z,82.98
2017-12-30T17:17:06.155Z,83.27
2017-12-30T17:19:33.676Z,82.56
2017-12-30T17:22:01.128Z,82.61
2017-12-30T17:24:28.682Z,83.05
2017-12-30T17:26:56.182Z,82.80
2017-12-30T17:29:23.711Z,82.84
2017-12-30T17:31:51.280Z,83.62
2017-12-30T17:34:18.748Z,83.64
2017-12-30T17:36:46.241Z,83.04
2017-12-30T17:39:13.725Z,82.96
2017-12-30T17:41:41.175Z,83.19
2017-12-30T17:44:08.679Z,83.34
2017-12-30T17:46:36.141Z,82.54
2017-12-30T17:49:03.621Z,82.36
2017-12-30T17:51:31.139Z,82.65
2017-12-30T17:53:58.633Z,82.44
2017-12-30T17:56:26.096Z,82.86
2017-12-30T17:58:53.614Z,84.28
2017-12-30T18:01:21.063Z,83.39
2017-12-30T18:03:48.517Z,83.79
2017-12-30T18:06:16.011Z,83.28
2017-12-30T18:08:43.610Z,82.86
2017-12-30T18:11:11.173Z,82.67
2017-12-30T18:13:38.745Z,83.16
2017-12-30T18:16:06.241Z,84.06
2017-12-30T18:18:33.784Z,83.98
2017-12-30T18:21:01.290Z,83.97
2017-12-30T18:23:28.792Z,83.07
2017-12-30T18:25:56.300Z,82.20
2017-12-30T18:28:23.745Z,81.72
2017-12-30T18:30:51.243Z,81.37
2017-12-30T18:33:18.764Z,80.89
2017-12-30T18:35:46.347Z,80.84
2017-12-30T18:38:13.820Z,80.93
2017-12-30T18:40:41.380Z,80.50
2017-12-30T18:43:08.868Z,80.41
2017-12-30T18:45:36.398Z,80.62
2017-12-30T18:48:03.881Z,80.06
2017-12-30T18:50:31.439Z,80.13
2017-12-30T18:52:58.919Z,80.23
2017-12-30T18:55:26.460Z,80.22
2017-12-30T18:57:53.971Z,79.77
2017-12-30T19:00:21.493Z,79.02
2017-12-30T19:02:49.054Z,78.81
2017-12-30T19:05:16.554Z,78.26
2017-12-30T19:07:44.071Z,78.38
2017-12-30T19:10:11.591Z,78.44
2017-12-30T19:12:39.114Z,78.30
2017-12-30T19:15:06.650Z,78.53
2017-12-30T19:17:34.160Z,78.39
2017-12-30T19:20:01.680Z,78.31
2017-12-30T19:22:29.170Z,78.40
2017-12-30T19:24:56.703Z,78.15
2017-12-30T19:27:24.203Z,77.99
2017-12-30T19:29:51.758Z,78.14
2017-12-30T19:32:19.349Z,78.11
2017-12-30T19:34:46.868Z,78.25
2017-12-30T19:37:14.338Z,78.45
2017-12-30T19:39:41.863Z,78.82
2017-12-30T19:42:09.558Z,78.73
2017-12-30T19:44:37.106Z,78.46
2017-12-30T19:47:04.624Z,78.31
2017-12-30T19:49:32.129Z,78.54
2017-12-30T19:51:59.627Z,78.54
2017-12-30T19:54:27.133Z,78.56
2017-12-30T19:56:54.634Z,77.71
2017-12-30T19:59:22.224Z,77.78
2017-12-30T20:01:49.731Z,77.94
2017-12-30T20:04:17.234Z,77.70
2017-12-30T20:06:44.746Z,77.76
2017-12-30T20:09:12.308Z,77.68
2017-12-30T20:11:39.805Z,77.79
2017-12-30T20:14:07.362Z,77.72
2017-12-30T20:16:34.878Z,77.57
2017-12-30T20:19:02.385Z,77.40
2017-12-30T20:21:29.898Z,77.48
2017-12-30T20:23:57.409Z,77.89
2017-12-30T20:26:24.975Z,77.98
2017-12-30T20:28:52.507Z,78.09
2017-12-30T20:31:20.006Z,77.88
2017-12-30T20:33:47.489Z,77.77
2017-12-30T20:36:14.998Z,77.52
2017-12-30T20:38:42.566Z,77.66
2017-12-30T20:41:10.157Z,78.07
2017-12-30T20:43:37.647Z,77.63
2017-12-30T20:46:05.218Z,77.27
2017-12-30T20:48:32.698Z,77.11
2017-12-30T20:51:00.217Z,77.08
2017-12-30T20:53:27.726Z,77.29
2017-12-30T20:55:55.319Z,77.59
2017-12-30T20:58:22.818Z,77.18
2017-12-30T21:00:50.318Z,76.98
2017-12-30T21:03:17.894Z,76.93
2017-12-30T21:05:45.468Z,76.71
2017-12-30T21:08:13.052Z,76.62
2017-12-30T21:10:40.546Z,76.52
2017-12-30T21:13:08.084Z,76.16
2017-12-30T21:15:35.612Z,75.67
2017-12-30T21:18:03.128Z,75.69
2017-12-30T21:20:30.696Z,75.75
2017-12-30T21:22:58.270Z,75.55
2017-12-30T21:25:25.832Z,75.36
2017-12-30T21:27:53.413Z,75.18
2017-12-30T21:30:20.981Z,75.00
2017-12-30T21:32:48.559Z,75.13
2017-12-30T21:35:16.071Z,74.87
2017-12-30T21:37:43.570Z,74.15
2017-12-30T21:40:11.093Z,74.31
2017-12-30T21:42:38.606Z,73.99
2017-12-30T21:45:06.168Z,74.38
2017-12-30T21:47:33.693Z,74.23
2017-12-30T21:50:01.202Z,74.12
2017-12-30T21:52:28.706Z,74.00
2017-12-30T21:54:56.207Z,73.84
2017-12-30T21:57:23.713Z,73.96
2017-12-30T21:59:51.252Z,74.02
2017-12-30T22:02:18.826Z,73.95
2017-12-30T22:04:46.394Z,73.97
2017-12-30T22:07:13.902Z,74.05
2017-12-30T22:09:41.447Z,74.10
2017-12-30T22:12:08.951Z,74.26
2017-12-30T22:14:36.466Z,74.16
2017-12-30T22:17:04.011Z,74.05
2017-12-30T22:19:31.524Z,73.91
2017-12-30T22:21:59.029Z,73.18
2017-12-30T22:24:26.569Z,73.93
2017-12-30T22:26:54.072Z,73.67
2017-12-30T22:29:21.578Z,74.49
2017-12-30T22:31:49.076Z,75.02
2017-12-30T22:34:16.656Z,74.81
2017-12-30T22:36:44.151Z,74.42
2017-12-30T22:39:11.705Z,74.43
2017-12-30T22:41:39.213Z,73.65
2017-12-30T22:44:06.718Z,73.55
2017-12-30T22:46:34.236Z,73.41
2017-12-30T22:49:01.777Z,73.32
2017-12-30T22:51:29.284Z,73.34
2017-12-30T22:53:56.823Z,73.45
2017-12-30T22:56:24.334Z,73.35
2017-12-30T22:58:51.858Z,73.12
2017-12-30T23:01:19.375Z,72.97
2017-12-30T23:03:46.872Z,72.79
2017-12-30T23:06:14.384Z,72.81
2017-12-30T23:08:41.954Z,72.18
2017-12-30T23:11:09.509Z,72.00
2017-12-30T23:13:37.028Z,71.92
2017-12-30T23:16:04.541Z,71.60
2017-12-30T23:18:32.057Z,72.38
2017-12-30T23:20:59.561Z,72.03
2017-12-30T23:23:27.199Z,72.16
2017-12-30T23:25:54.756Z,71.38
2017-12-30T23:28:22.270Z,70.97
2017-12-30T23:30:49.796Z,70.88
2017-12-30T23:33:17.309Z,70.87
2017-12-30T23:35:44.846Z,70.59
2017-12-30T23:38:12.360Z,70.68
2017-12-30T23:40:39.858Z,70.28
2017-12-30T23:43:07.369Z,69.99
2017-12-30T23:45:34.932Z,69.66
2017-12-30T23:48:02.489Z,69.11
2017-12-30T23:50:29.990Z,69.25
2017-12-30T23:52:57.483Z,69.30
2017-12-30T23:55:25.022Z,69.39
2017-12-30T23:57:52.603Z,69.42
